ザウジ の空港の天気 - METARとTAF

ザウジ・パマンジ空港 ( FMCZ / DZA ) - マヨット ザウジ
飛行場実況気象(Metar)
観測時間07/02 14:00 EAT (07/02 11:00 UTC)
風向・風速南東 6m/s
視程10km以上
天気現象
全天の4割程度の雲 雲底高度 820m
気温28℃
湿度62%
気圧1014hPa
METARFMCZ 021100Z AUTO 13011KT 9999 SCT027 28/20 Q1014 NOSIG
過去の天気等 Google飛行場航空写真 Wunderground天気予報

過去48時間のMETAR

飛行場予報(TAF)
発表時間: -
3日3時 EAT ~ 3日7時 EAT に 確率 30% で一時的に
天気現象しゅう雨
TAF
FMCZ 020500Z 0206/0306 16015KT 9999 FEW038
PROB30 TEMPO 0300/0304 SHRA